sensor_id;sensor_type;location;lat;lon;timestamp;temperature;humidity
5930;DHT22;2990;48.746;9.236;2023-04-03T00:02:10;2.70;25.50
5930;DHT22;2990;48.746;9.236;2023-04-03T00:04:35;2.60;99.90
5930;DHT22;2990;48.746;9.236;2023-04-03T00:07:01;2.60;1.00
5930;DHT22;2990;48.746;9.236;2023-04-03T00:09:26;2.50;1.00
5930;DHT22;2990;48.746;9.236;2023-04-03T00:11:52;2.50;1.00
5930;DHT22;2990;48.746;9.236;2023-04-03T00:14:18;2.50;99.90
5930;DHT22;2990;48.746;9.236;2023-04-03T00:16:43;2.70;1.00
5930;DHT22;2990;48.746;9.236;2023-04-03T00:19:09;2.50;1.00
5930;DHT22;2990;48.746;9.236;2023-04-03T00:21:37;2.50;1.00
5930;DHT22;2990;48.746;9.236;2023-04-03T00:24:03;2.50;99.90
5930;DHT22;2990;48.746;9.236;2023-04-03T00:26:28;2.50;1.00
5930;DHT22;2990;48.746;9.236;2023-04-03T00:28:54;2.40;99.90
5930;DHT22;2990;48.746;9.236;2023-04-03T00:31:20;2.40;99.90
5930;DHT22;2990;48.746;9.236;2023-04-03T00:33:46;2.50;1.00
5930;DHT22;2990;48.746;9.236;2023-04-03T00:36:12;2.50;1.00
5930;DHT22;2990;48.746;9.236;2023-04-03T00:38:41;2.50;1.00
5930;DHT22;2990;48.746;9.236;2023-04-03T00:41:07;2.40;99.90
5930;DHT22;2990;48.746;9.236;2023-04-03T00:43:32;2.40;1.00
5930;DHT22;2990;48.746;9.236;2023-04-03T00:45:59;2.40;1.00
5930;DHT22;2990;48.746;9.236;2023-04-03T00:48:48;2.40;1.00
5930;DHT22;2990;48.746;9.236;2023-04-03T00:51:20;2.50;1.00
5930;DHT22;2990;48.746;9.236;2023-04-03T00:53:51;2.50;99.90
5930;DHT22;2990;48.746;9.236;2023-04-03T00:56:22;2.50;1.00
5930;DHT22;2990;48.746;9.236;2023-04-03T00:58:53;2.50;99.90
5930;DHT22;2990;48.746;9.236;2023-04-03T01:01:26;2.50;1.00
5930;DHT22;2990;48.746;9.236;2023-04-03T01:03:52;2.60;1.00
5930;DHT22;2990;48.746;9.236;2023-04-03T01:06:23;2.70;17.80
5930;DHT22;2990;48.746;9.236;2023-04-03T01:08:52;2.40;99.90
5930;DHT22;2990;48.746;9.236;2023-04-03T01:11:18;2.40;1.00
5930;DHT22;2990;48.746;9.236;2023-04-03T01:13:46;2.40;1.00
5930;DHT22;2990;48.746;9.236;2023-04-03T01:16:11;2.50;1.00
5930;DHT22;2990;48.746;9.236;2023-04-03T01:18:39;2.50;1.00
5930;DHT22;2990;48.746;9.236;2023-04-03T01:24:11;2.40;1.00
5930;DHT22;2990;48.746;9.236;2023-04-03T01:26:38;2.40;99.90
5930;DHT22;2990;48.746;9.236;2023-04-03T01:29:05;2.40;99.90
5930;DHT22;2990;48.746;9.236;2023-04-03T01:34:00;2.20;99.90
5930;DHT22;2990;48.746;9.236;2023-04-03T01:36:28;2.30;16.10
5930;DHT22;2990;48.746;9.236;2023-04-03T01:38:55;2.40;1.00
5930;DHT22;2990;48.746;9.236;2023-04-03T01:41:21;2.20;1.00
5930;DHT22;2990;48.746;9.236;2023-04-03T01:43:51;2.20;1.00
5930;DHT22;2990;48.746;9.236;2023-04-03T01:46:19;2.20;99.90
5930;DHT22;2990;48.746;9.236;2023-04-03T01:48:48;2.30;1.00
5930;DHT22;2990;48.746;9.236;2023-04-03T01:51:14;2.20;1.00
5930;DHT22;2990;48.746;9.236;2023-04-03T01:53:40;2.30;1.00
5930;DHT22;2990;48.746;9.236;2023-04-03T01:56:06;2.30;99.90
5930;DHT22;2990;48.746;9.236;2023-04-03T01:58:32;2.30;1.00
5930;DHT22;2990;48.746;9.236;2023-04-03T02:00:58;2.20;99.90
5930;DHT22;2990;48.746;9.236;2023-04-03T02:03:23;2.30;99.90
5930;DHT22;2990;48.746;9.236;2023-04-03T02:05:50;2.20;99.90
5930;DHT22;2990;48.746;9.236;2023-04-03T02:08:16;2.20;1.00
5930;DHT22;2990;48.746;9.236;2023-04-03T02:10:44;2.20;1.00
5930;DHT22;2990;48.746;9.236;2023-04-03T02:13:12;2.20;99.90
5930;DHT22;2990;48.746;9.236;2023-04-03T02:15:38;2.30;1.00
5930;DHT22;2990;48.746;9.236;2023-04-03T02:18:05;2.20;1.00
5930;DHT22;2990;48.746;9.236;2023-04-03T02:20:31;2.20;99.90
5930;DHT22;2990;48.746;9.236;2023-04-03T02:22:57;2.40;1.00
5930;DHT22;2990;48.746;9.236;2023-04-03T02:25:22;2.30;1.00
5930;DHT22;2990;48.746;9.236;2023-04-03T02:27:48;2.30;1.00
5930;DHT22;2990;48.746;9.236;2023-04-03T02:30:14;2.30;99.90
5930;DHT22;2990;48.746;9.236;2023-04-03T02:32:41;2.30;99.90
5930;DHT22;2990;48.746;9.236;2023-04-03T02:35:07;2.30;99.90
5930;DHT22;2990;48.746;9.236;2023-04-03T02:37:33;2.30;1.00
5930;DHT22;2990;48.746;9.236;2023-04-03T02:39:59;2.50;99.90
5930;DHT22;2990;48.746;9.236;2023-04-03T02:42:25;2.40;99.90
5930;DHT22;2990;48.746;9.236;2023-04-03T02:44:50;2.40;99.90
5930;DHT22;2990;48.746;9.236;2023-04-03T02:47:16;2.40;1.00
5930;DHT22;2990;48.746;9.236;2023-04-03T02:49:42;2.40;1.00
5930;DHT22;2990;48.746;9.236;2023-04-03T02:52:12;2.40;1.00
5930;DHT22;2990;48.746;9.236;2023-04-03T02:54:37;2.30;99.90
5930;DHT22;2990;48.746;9.236;2023-04-03T02:57:09;2.30;1.00
5930;DHT22;2990;48.746;9.236;2023-04-03T02:59:38;2.30;1.00
5930;DHT22;2990;48.746;9.236;2023-04-03T03:02:07;2.30;99.90
5930;DHT22;2990;48.746;9.236;2023-04-03T03:04:33;2.30;1.00
5930;DHT22;2990;48.746;9.236;2023-04-03T03:07:04;2.30;99.90
5930;DHT22;2990;48.746;9.236;2023-04-03T03:09:30;2.30;1.00
5930;DHT22;2990;48.746;9.236;2023-04-03T03:11:57;2.40;1.00
5930;DHT22;2990;48.746;9.236;2023-04-03T03:14:23;2.50;1.00
5930;DHT22;2990;48.746;9.236;2023-04-03T03:16:49;2.50;1.00
5930;DHT22;2990;48.746;9.236;2023-04-03T03:19:15;2.30;99.90
5930;DHT22;2990;48.746;9.236;2023-04-03T03:21:41;2.40;99.90
5930;DHT22;2990;48.746;9.236;2023-04-03T03:24:07;2.30;1.00
5930;DHT22;2990;48.746;9.236;2023-04-03T03:26:33;2.30;1.00
5930;DHT22;2990;48.746;9.236;2023-04-03T03:28:59;2.30;99.90
5930;DHT22;2990;48.746;9.236;2023-04-03T03:31:27;2.30;99.90
5930;DHT22;2990;48.746;9.236;2023-04-03T03:37:15;2.30;99.90
5930;DHT22;2990;48.746;9.236;2023-04-03T03:39:41;2.30;99.90
5930;DHT22;2990;48.746;9.236;2023-04-03T03:42:09;2.50;15.90
5930;DHT22;2990;48.746;9.236;2023-04-03T03:44:37;2.30;98.00
5930;DHT22;2990;48.746;9.236;2023-04-03T03:47:05;2.30;1.70
5930;DHT22;2990;48.746;9.236;2023-04-03T03:49:31;2.30;1.00
5930;DHT22;2990;48.746;9.236;2023-04-03T03:51:57;2.20;1.00
5930;DHT22;2990;48.746;9.236;2023-04-03T03:54:23;2.30;26.40
5930;DHT22;2990;48.746;9.236;2023-04-03T03:56:48;2.40;1.00
5930;DHT22;2990;48.746;9.236;2023-04-03T03:59:14;2.20;45.30
5930;DHT22;2990;48.746;9.236;2023-04-03T04:01:42;2.20;99.90
5930;DHT22;2990;48.746;9.236;2023-04-03T04:04:13;2.20;99.90
5930;DHT22;2990;48.746;9.236;2023-04-03T04:06:42;2.20;69.30
5930;DHT22;2990;48.746;9.236;2023-04-03T04:09:09;2.30;1.00
5930;DHT22;2990;48.746;9.236;2023-04-03T04:11:35;2.20;1.00
5930;DHT22;2990;48.746;9.236;2023-04-03T04:14:01;2.30;1.00
5930;DHT22;2990;48.746;9.236;2023-04-03T04:16:34;2.20;1.00
5930;DHT22;2990;48.746;9.236;2023-04-03T04:18:59;2.20;1.00
5930;DHT22;2990;48.746;9.236;2023-04-03T04:21:25;2.20;99.90
5930;DHT22;2990;48.746;9.236;2023-04-03T04:23:51;2.30;99.90
5930;DHT22;2990;48.746;9.236;2023-04-03T04:26:17;2.30;99.90
5930;DHT22;2990;48.746;9.236;2023-04-03T04:28:46;2.50;99.90
5930;DHT22;2990;48.746;9.236;2023-04-03T04:31:14;2.40;99.90
5930;DHT22;2990;48.746;9.236;2023-04-03T04:33:39;2.40;99.90
5930;DHT22;2990;48.746;9.236;2023-04-03T04:36:06;2.30;99.90
5930;DHT22;2990;48.746;9.236;2023-04-03T04:38:32;2.30;99.90
5930;DHT22;2990;48.746;9.236;2023-04-03T04:40:57;2.30;99.90
5930;DHT22;2990;48.746;9.236;2023-04-03T04:43:23;2.50;99.90
5930;DHT22;2990;48.746;9.236;2023-04-03T04:45:57;2.30;99.90
5930;DHT22;2990;48.746;9.236;2023-04-03T04:48:25;2.30;99.90
5930;DHT22;2990;48.746;9.236;2023-04-03T04:50:58;2.30;99.90
5930;DHT22;2990;48.746;9.236;2023-04-03T04:53:24;2.30;99.90
5930;DHT22;2990;48.746;9.236;2023-04-03T04:55:50;2.50;99.90
5930;DHT22;2990;48.746;9.236;2023-04-03T04:58:16;2.30;99.90
5930;DHT22;2990;48.746;9.236;2023-04-03T05:00:46;2.30;99.90
5930;DHT22;2990;48.746;9.236;2023-04-03T05:03:12;2.20;99.90
5930;DHT22;2990;48.746;9.236;2023-04-03T05:05:37;2.20;99.90
5930;DHT22;2990;48.746;9.236;2023-04-03T05:08:06;2.30;99.90
5930;DHT22;2990;48.746;9.236;2023-04-03T05:10:33;2.40;99.90
5930;DHT22;2990;48.746;9.236;2023-04-03T05:12:59;2.30;99.90
5930;DHT22;2990;48.746;9.236;2023-04-03T05:15:25;2.20;99.90
5930;DHT22;2990;48.746;9.236;2023-04-03T05:17:51;2.30;99.90
5930;DHT22;2990;48.746;9.236;2023-04-03T05:20:20;2.30;99.90
5930;DHT22;2990;48.746;9.236;2023-04-03T05:22:46;2.40;99.90
5930;DHT22;2990;48.746;9.236;2023-04-03T05:25:14;2.60;12.30
5930;DHT22;2990;48.746;9.236;2023-04-03T05:27:40;2.40;4.90
5930;DHT22;2990;48.746;9.236;2023-04-03T05:30:09;2.50;1.00
5930;DHT22;2990;48.746;9.236;2023-04-03T05:32:35;2.60;1.00
5930;DHT22;2990;48.746;9.236;2023-04-03T05:35:01;2.60;1.00
5930;DHT22;2990;48.746;9.236;2023-04-03T05:37:27;2.70;1.00
5930;DHT22;2990;48.746;9.236;2023-04-03T05:39:53;2.70;1.00
5930;DHT22;2990;48.746;9.236;2023-04-03T05:42:19;2.70;1.00
5930;DHT22;2990;48.746;9.236;2023-04-03T05:44:47;2.70;1.00
5930;DHT22;2990;48.746;9.236;2023-04-03T05:47:13;2.70;1.00
5930;DHT22;2990;48.746;9.236;2023-04-03T05:49:38;2.70;1.00
5930;DHT22;2990;48.746;9.236;2023-04-03T05:52:37;2.70;1.00
5930;DHT22;2990;48.746;9.236;2023-04-03T05:55:09;2.70;1.00
5930;DHT22;2990;48.746;9.236;2023-04-03T05:57:34;2.70;1.00
5930;DHT22;2990;48.746;9.236;2023-04-03T06:03:22;2.70;1.00
5930;DHT22;2990;48.746;9.236;2023-04-03T06:05:48;2.80;1.00
5930;DHT22;2990;48.746;9.236;2023-04-03T06:08:16;2.70;1.00
5930;DHT22;2990;48.746;9.236;2023-04-03T06:10:45;2.70;1.00
5930;DHT22;2990;48.746;9.236;2023-04-03T06:13:14;2.80;1.00
5930;DHT22;2990;48.746;9.236;2023-04-03T06:16:04;2.80;1.00
5930;DHT22;2990;48.746;9.236;2023-04-03T06:18:32;2.70;1.00
5930;DHT22;2990;48.746;9.236;2023-04-03T06:20:58;2.80;1.00
5930;DHT22;2990;48.746;9.236;2023-04-03T06:23:27;2.70;1.00
5930;DHT22;2990;48.746;9.236;2023-04-03T06:25:55;2.60;1.00
5930;DHT22;2990;48.746;9.236;2023-04-03T06:28:21;2.60;1.00
5930;DHT22;2990;48.746;9.236;2023-04-03T06:30:47;2.60;1.00
5930;DHT22;2990;48.746;9.236;2023-04-03T06:33:12;2.80;1.00
5930;DHT22;2990;48.746;9.236;2023-04-03T06:35:38;2.80;1.00
5930;DHT22;2990;48.746;9.236;2023-04-03T06:38:04;2.80;1.00
5930;DHT22;2990;48.746;9.236;2023-04-03T06:40:37;2.80;1.00
5930;DHT22;2990;48.746;9.236;2023-04-03T06:43:05;2.80;1.00
5930;DHT22;2990;48.746;9.236;2023-04-03T06:45:31;2.80;1.00
5930;DHT22;2990;48.746;9.236;2023-04-03T06:47:57;2.80;1.00
5930;DHT22;2990;48.746;9.236;2023-04-03T06:50:25;2.90;1.00
5930;DHT22;2990;48.746;9.236;2023-04-03T06:52:51;3.10;1.00
5930;DHT22;2990;48.746;9.236;2023-04-03T06:55:17;2.70;1.00
5930;DHT22;2990;48.746;9.236;2023-04-03T06:57:43;2.70;1.00
5930;DHT22;2990;48.746;9.236;2023-04-03T07:00:12;2.80;1.00
5930;DHT22;2990;48.746;9.236;2023-04-03T07:02:41;2.80;1.00
5930;DHT22;2990;48.746;9.236;2023-04-03T07:05:07;2.90;1.00
5930;DHT22;2990;48.746;9.236;2023-04-03T07:07:35;2.90;1.00
5930;DHT22;2990;48.746;9.236;2023-04-03T07:10:05;3.00;1.00
5930;DHT22;2990;48.746;9.236;2023-04-03T07:15:53;3.10;1.00
5930;DHT22;2990;48.746;9.236;2023-04-03T07:18:19;3.20;1.00
5930;DHT22;2990;48.746;9.236;2023-04-03T07:20:47;3.20;1.00
5930;DHT22;2990;48.746;9.236;2023-04-03T07:23:22;3.30;1.00
5930;DHT22;2990;48.746;9.236;2023-04-03T07:25:52;3.30;1.00
5930;DHT22;2990;48.746;9.236;2023-04-03T07:28:27;3.40;1.00
5930;DHT22;2990;48.746;9.236;2023-04-03T07:30:59;3.40;1.00
5930;DHT22;2990;48.746;9.236;2023-04-03T07:33:28;3.30;1.00
5930;DHT22;2990;48.746;9.236;2023-04-03T07:35:53;3.50;1.00
5930;DHT22;2990;48.746;9.236;2023-04-03T07:38:19;3.50;1.00
5930;DHT22;2990;48.746;9.236;2023-04-03T07:40:51;3.20;1.00
5930;DHT22;2990;48.746;9.236;2023-04-03T07:43:22;3.40;1.00
5930;DHT22;2990;48.746;9.236;2023-04-03T07:45:53;3.30;1.00
5930;DHT22;2990;48.746;9.236;2023-04-03T07:48:24;3.80;1.00
5930;DHT22;2990;48.746;9.236;2023-04-03T07:50:53;3.40;1.00
5930;DHT22;2990;48.746;9.236;2023-04-03T07:53:21;3.50;1.00
5930;DHT22;2990;48.746;9.236;2023-04-03T07:55:50;3.50;1.00
5930;DHT22;2990;48.746;9.236;2023-04-03T07:58:23;3.70;1.00
5930;DHT22;2990;48.746;9.236;2023-04-03T08:00:49;3.80;1.00
5930;DHT22;2990;48.746;9.236;2023-04-03T08:03:18;4.10;1.00
5930;DHT22;2990;48.746;9.236;2023-04-03T08:05:48;4.20;1.00
5930;DHT22;2990;48.746;9.236;2023-04-03T08:08:21;4.40;1.00
5930;DHT22;2990;48.746;9.236;2023-04-03T08:10:51;4.20;1.00
5930;DHT22;2990;48.746;9.236;2023-04-03T08:13:21;4.10;1.00
5930;DHT22;2990;48.746;9.236;2023-04-03T08:15:47;4.10;1.00
5930;DHT22;2990;48.746;9.236;2023-04-03T08:18:14;4.30;1.00
5930;DHT22;2990;48.746;9.236;2023-04-03T08:20:40;4.40;1.00
5930;DHT22;2990;48.746;9.236;2023-04-03T08:23:07;4.50;1.00
5930;DHT22;2990;48.746;9.236;2023-04-03T08:25:37;4.60;1.00
5930;DHT22;2990;48.746;9.236;2023-04-03T08:28:05;4.70;1.00
5930;DHT22;2990;48.746;9.236;2023-04-03T08:30:31;4.80;1.00
5930;DHT22;2990;48.746;9.236;2023-04-03T08:32:56;4.60;1.00
5930;DHT22;2990;48.746;9.236;2023-04-03T08:35:22;4.40;1.00
5930;DHT22;2990;48.746;9.236;2023-04-03T08:37:48;4.20;1.00
5930;DHT22;2990;48.746;9.236;2023-04-03T08:40:16;4.30;1.00
5930;DHT22;2990;48.746;9.236;2023-04-03T08:43:16;4.30;1.00
5930;DHT22;2990;48.746;9.236;2023-04-03T08:45:53;4.60;1.00
5930;DHT22;2990;48.746;9.236;2023-04-03T08:48:26;4.60;1.00
5930;DHT22;2990;48.746;9.236;2023-04-03T08:54:30;4.80;1.00
5930;DHT22;2990;48.746;9.236;2023-04-03T08:57:02;5.30;1.00
5930;DHT22;2990;48.746;9.236;2023-04-03T08:59:36;5.40;99.90
5930;DHT22;2990;48.746;9.236;2023-04-03T09:02:28;5.40;99.90
5930;DHT22;2990;48.746;9.236;2023-04-03T09:04:54;6.10;99.90
5930;DHT22;2990;48.746;9.236;2023-04-03T09:07:39;6.30;99.90
5930;DHT22;2990;48.746;9.236;2023-04-03T09:10:12;6.50;99.90
5930;DHT22;2990;48.746;9.236;2023-04-03T09:12:44;6.10;99.90
5930;DHT22;2990;48.746;9.236;2023-04-03T09:18:06;6.00;99.90
5930;DHT22;2990;48.746;9.236;2023-04-03T09:20:46;5.90;99.90
5930;DHT22;2990;48.746;9.236;2023-04-03T09:25:58;5.60;99.90
5930;DHT22;2990;48.746;9.236;2023-04-03T09:28:25;5.60;99.90
5930;DHT22;2990;48.746;9.236;2023-04-03T09:30:51;5.70;99.90
5930;DHT22;2990;48.746;9.236;2023-04-03T09:33:20;5.60;99.90
5930;DHT22;2990;48.746;9.236;2023-04-03T09:35:50;5.60;99.90
5930;DHT22;2990;48.746;9.236;2023-04-03T09:38:20;5.90;99.90
5930;DHT22;2990;48.746;9.236;2023-04-03T09:43:34;5.90;99.90
5930;DHT22;2990;48.746;9.236;2023-04-03T09:49:00;5.80;99.90
5930;DHT22;2990;48.746;9.236;2023-04-03T09:51:28;5.70;99.90
5930;DHT22;2990;48.746;9.236;2023-04-03T09:53:55;5.70;99.90
5930;DHT22;2990;48.746;9.236;2023-04-03T09:56:22;5.70;99.90
5930;DHT22;2990;48.746;9.236;2023-04-03T09:59:07;5.30;99.90
5930;DHT22;2990;48.746;9.236;2023-04-03T10:01:38;5.50;99.90
5930;DHT22;2990;48.746;9.236;2023-04-03T10:04:10;5.40;99.90
5930;DHT22;2990;48.746;9.236;2023-04-03T10:09:28;5.30;99.90
5930;DHT22;2990;48.746;9.236;2023-04-03T10:12:09;5.10;99.90
5930;DHT22;2990;48.746;9.236;2023-04-03T10:19:50;4.90;99.90
5930;DHT22;2990;48.746;9.236;2023-04-03T10:22:40;4.70;99.90
5930;DHT22;2990;48.746;9.236;2023-04-03T10:25:17;4.80;99.90
5930;DHT22;2990;48.746;9.236;2023-04-03T10:28:06;4.80;99.90
5930;DHT22;2990;48.746;9.236;2023-04-03T10:30:56;5.00;99.90
5930;DHT22;2990;48.746;9.236;2023-04-03T10:47:34;5.00;99.90
5930;DHT22;2990;48.746;9.236;2023-04-03T10:53:08;5.00;99.90
5930;DHT22;2990;48.746;9.236;2023-04-03T10:58:54;4.70;99.90
5930;DHT22;2990;48.746;9.236;2023-04-03T11:01:26;4.70;99.90
5930;DHT22;2990;48.746;9.236;2023-04-03T11:03:58;4.70;99.90
5930;DHT22;2990;48.746;9.236;2023-04-03T11:06:34;4.90;99.90
5930;DHT22;2990;48.746;9.236;2023-04-03T11:09:07;4.90;99.90
5930;DHT22;2990;48.746;9.236;2023-04-03T11:11:39;5.10;99.90
5930;DHT22;2990;48.746;9.236;2023-04-03T11:16:41;5.40;99.90
5930;DHT22;2990;48.746;9.236;2023-04-03T11:19:18;5.30;99.90
5930;DHT22;2990;48.746;9.236;2023-04-03T11:21:57;5.40;99.90
5930;DHT22;2990;48.746;9.236;2023-04-03T11:24:29;5.10;99.90
5930;DHT22;2990;48.746;9.236;2023-04-03T11:26:58;5.10;99.90
5930;DHT22;2990;48.746;9.236;2023-04-03T11:29:31;5.10;99.90
5930;DHT22;2990;48.746;9.236;2023-04-03T11:35:17;5.10;99.90
5930;DHT22;2990;48.746;9.236;2023-04-03T11:38:04;5.00;99.90
5930;DHT22;2990;48.746;9.236;2023-04-03T11:40:34;4.90;99.90
5930;DHT22;2990;48.746;9.236;2023-04-03T11:46:02;5.00;99.90
5930;DHT22;2990;48.746;9.236;2023-04-03T11:50:55;5.40;99.90
5930;DHT22;2990;48.746;9.236;2023-04-03T11:53:27;5.50;99.90
5930;DHT22;2990;48.746;9.236;2023-04-03T11:55:56;5.60;99.90
5930;DHT22;2990;48.746;9.236;2023-04-03T11:58:23;5.60;99.90
5930;DHT22;2990;48.746;9.236;2023-04-03T12:00:54;5.50;99.90
5930;DHT22;2990;48.746;9.236;2023-04-03T12:08:48;5.40;99.90
5930;DHT22;2990;48.746;9.236;2023-04-03T12:11:30;5.60;99.90
5930;DHT22;2990;48.746;9.236;2023-04-03T12:29:46;5.30;99.90
5930;DHT22;2990;48.746;9.236;2023-04-03T12:40:48;5.20;99.90
5930;DHT22;2990;48.746;9.236;2023-04-03T12:43:29;5.20;99.90
5930;DHT22;2990;48.746;9.236;2023-04-03T12:46:07;5.40;99.90
5930;DHT22;2990;48.746;9.236;2023-04-03T12:48:53;5.40;99.90
5930;DHT22;2990;48.746;9.236;2023-04-03T12:51:41;5.50;99.90
5930;DHT22;2990;48.746;9.236;2023-04-03T12:54:30;5.90;99.90
5930;DHT22;2990;48.746;9.236;2023-04-03T12:57:20;5.90;99.90
5930;DHT22;2990;48.746;9.236;2023-04-03T12:59:47;6.10;99.90
5930;DHT22;2990;48.746;9.236;2023-04-03T13:02:22;6.20;99.90
5930;DHT22;2990;48.746;9.236;2023-04-03T13:04:52;6.30;99.90
5930;DHT22;2990;48.746;9.236;2023-04-03T13:07:25;6.50;99.90
5930;DHT22;2990;48.746;9.236;2023-04-03T13:10:14;6.70;99.90
5930;DHT22;2990;48.746;9.236;2023-04-03T13:12:52;6.80;99.90
5930;DHT22;2990;48.746;9.236;2023-04-03T13:15:29;6.80;99.90
5930;DHT22;2990;48.746;9.236;2023-04-03T13:17:56;7.00;99.90
5930;DHT22;2990;48.746;9.236;2023-04-03T13:20:31;7.20;99.90
5930;DHT22;2990;48.746;9.236;2023-04-03T13:23:05;7.40;99.90
5930;DHT22;2990;48.746;9.236;2023-04-03T13:25:35;7.40;99.90
5930;DHT22;2990;48.746;9.236;2023-04-03T13:28:04;7.10;99.90
5930;DHT22;2990;48.746;9.236;2023-04-03T13:30:34;6.80;99.90
5930;DHT22;2990;48.746;9.236;2023-04-03T13:33:05;6.60;99.90
5930;DHT22;2990;48.746;9.236;2023-04-03T13:35:43;6.60;99.90
5930;DHT22;2990;48.746;9.236;2023-04-03T13:43:21;6.80;99.90
5930;DHT22;2990;48.746;9.236;2023-04-03T13:48:42;7.00;99.90
5930;DHT22;2990;48.746;9.236;2023-04-03T13:54:19;7.10;99.90
5930;DHT22;2990;48.746;9.236;2023-04-03T13:56:44;7.10;99.90
5930;DHT22;2990;48.746;9.236;2023-04-03T14:04:31;7.10;99.90
5930;DHT22;2990;48.746;9.236;2023-04-03T14:06:57;7.00;99.90
5930;DHT22;2990;48.746;9.236;2023-04-03T14:09:28;6.90;99.90
5930;DHT22;2990;48.746;9.236;2023-04-03T14:11:57;6.80;99.90
5930;DHT22;2990;48.746;9.236;2023-04-03T14:14:27;6.50;99.90
5930;DHT22;2990;48.746;9.236;2023-04-03T14:17:15;6.50;99.90
5930;DHT22;2990;48.746;9.236;2023-04-03T14:19:44;6.40;99.90
5930;DHT22;2990;48.746;9.236;2023-04-03T14:22:21;6.40;99.90
5930;DHT22;2990;48.746;9.236;2023-04-03T14:24:50;6.40;99.90
5930;DHT22;2990;48.746;9.236;2023-04-03T14:27:21;6.50;99.90
5930;DHT22;2990;48.746;9.236;2023-04-03T14:29:48;6.40;99.90
5930;DHT22;2990;48.746;9.236;2023-04-03T14:32:17;6.30;99.90
5930;DHT22;2990;48.746;9.236;2023-04-03T14:34:43;6.20;99.90
5930;DHT22;2990;48.746;9.236;2023-04-03T14:37:15;6.40;59.20
5930;DHT22;2990;48.746;9.236;2023-04-03T14:39:43;6.80;99.90
5930;DHT22;2990;48.746;9.236;2023-04-03T14:42:13;7.00;99.90
5930;DHT22;2990;48.746;9.236;2023-04-03T14:44:40;7.30;98.10
5930;DHT22;2990;48.746;9.236;2023-04-03T14:47:12;7.30;99.90
5930;DHT22;2990;48.746;9.236;2023-04-03T14:49:42;7.10;99.90
5930;DHT22;2990;48.746;9.236;2023-04-03T14:52:26;6.90;99.90
5930;DHT22;2990;48.746;9.236;2023-04-03T14:54:58;6.60;99.90
5930;DHT22;2990;48.746;9.236;2023-04-03T14:57:25;6.50;99.90
5930;DHT22;2990;48.746;9.236;2023-04-03T14:59:52;6.30;99.90
5930;DHT22;2990;48.746;9.236;2023-04-03T15:02:33;6.20;99.90
5930;DHT22;2990;48.746;9.236;2023-04-03T15:05:00;6.20;99.90
5930;DHT22;2990;48.746;9.236;2023-04-03T15:10:53;6.40;99.90
5930;DHT22;2990;48.746;9.236;2023-04-03T15:13:21;6.40;99.90
5930;DHT22;2990;48.746;9.236;2023-04-03T15:15:47;6.40;99.90
5930;DHT22;2990;48.746;9.236;2023-04-03T15:18:20;6.50;99.90
5930;DHT22;2990;48.746;9.236;2023-04-03T15:20:47;6.60;99.90
5930;DHT22;2990;48.746;9.236;2023-04-03T15:23:14;6.70;99.90
5930;DHT22;2990;48.746;9.236;2023-04-03T15:25:45;6.70;99.90
5930;DHT22;2990;48.746;9.236;2023-04-03T15:28:26;6.70;99.90
5930;DHT22;2990;48.746;9.236;2023-04-03T15:30:55;6.60;99.90
5930;DHT22;2990;48.746;9.236;2023-04-03T15:33:21;6.10;99.90
5930;DHT22;2990;48.746;9.236;2023-04-03T15:35:49;5.90;99.90
5930;DHT22;2990;48.746;9.236;2023-04-03T15:38:15;5.70;99.90
5930;DHT22;2990;48.746;9.236;2023-04-03T15:40:47;5.50;99.90
5930;DHT22;2990;48.746;9.236;2023-04-03T15:43:14;5.40;99.90
5930;DHT22;2990;48.746;9.236;2023-04-03T15:45:40;5.50;99.90
5930;DHT22;2990;48.746;9.236;2023-04-03T15:48:10;5.80;96.50
5930;DHT22;2990;48.746;9.236;2023-04-03T15:50:36;6.00;99.90
5930;DHT22;2990;48.746;9.236;2023-04-03T15:53:02;6.30;99.90
5930;DHT22;2990;48.746;9.236;2023-04-03T15:55:30;6.10;99.90
5930;DHT22;2990;48.746;9.236;2023-04-03T15:57:56;6.00;99.90
5930;DHT22;2990;48.746;9.236;2023-04-03T16:00:39;6.00;99.90
5930;DHT22;2990;48.746;9.236;2023-04-03T16:03:12;6.40;99.90
5930;DHT22;2990;48.746;9.236;2023-04-03T16:08:53;6.20;99.90
5930;DHT22;2990;48.746;9.236;2023-04-03T16:11:29;6.50;99.90
5930;DHT22;2990;48.746;9.236;2023-04-03T16:14:01;6.50;99.90
5930;DHT22;2990;48.746;9.236;2023-04-03T16:16:26;6.40;99.90
5930;DHT22;2990;48.746;9.236;2023-04-03T16:18:54;6.10;99.90
5930;DHT22;2990;48.746;9.236;2023-04-03T16:21:32;6.00;99.90
5930;DHT22;2990;48.746;9.236;2023-04-03T16:24:01;5.70;99.90
5930;DHT22;2990;48.746;9.236;2023-04-03T16:26:33;5.50;99.90
5930;DHT22;2990;48.746;9.236;2023-04-03T16:29:12;5.40;99.90
5930;DHT22;2990;48.746;9.236;2023-04-03T16:31:45;5.20;99.90
5930;DHT22;2990;48.746;9.236;2023-04-03T16:34:11;5.40;99.90
5930;DHT22;2990;48.746;9.236;2023-04-03T16:36:37;5.40;99.90
5930;DHT22;2990;48.746;9.236;2023-04-03T16:39:15;5.50;99.90
5930;DHT22;2990;48.746;9.236;2023-04-03T16:41:58;5.70;99.90
5930;DHT22;2990;48.746;9.236;2023-04-03T16:44:24;5.90;99.90
5930;DHT22;2990;48.746;9.236;2023-04-03T16:46:50;6.10;99.90
5930;DHT22;2990;48.746;9.236;2023-04-03T16:49:18;5.90;99.90
5930;DHT22;2990;48.746;9.236;2023-04-03T16:51:44;5.90;99.90
5930;DHT22;2990;48.746;9.236;2023-04-03T16:54:15;5.80;99.90
5930;DHT22;2990;48.746;9.236;2023-04-03T16:56:43;5.80;99.90
5930;DHT22;2990;48.746;9.236;2023-04-03T16:59:09;5.80;99.90
5930;DHT22;2990;48.746;9.236;2023-04-03T17:01:39;5.70;99.90
5930;DHT22;2990;48.746;9.236;2023-04-03T17:04:08;5.60;99.90
5930;DHT22;2990;48.746;9.236;2023-04-03T17:06:34;5.60;99.90
5930;DHT22;2990;48.746;9.236;2023-04-03T17:09:00;5.50;99.90
5930;DHT22;2990;48.746;9.236;2023-04-03T17:11:30;5.40;99.90
5930;DHT22;2990;48.746;9.236;2023-04-03T17:16:59;5.30;99.90
5930;DHT22;2990;48.746;9.236;2023-04-03T17:19:36;5.30;99.90
5930;DHT22;2990;48.746;9.236;2023-04-03T17:22:13;5.20;99.90
5930;DHT22;2990;48.746;9.236;2023-04-03T17:24:41;5.20;99.90
5930;DHT22;2990;48.746;9.236;2023-04-03T17:27:09;5.20;99.90
5930;DHT22;2990;48.746;9.236;2023-04-03T17:29:35;5.10;99.90
5930;DHT22;2990;48.746;9.236;2023-04-03T17:32:03;5.00;99.90
5930;DHT22;2990;48.746;9.236;2023-04-03T17:42:39;4.80;99.90
5930;DHT22;2990;48.746;9.236;2023-04-03T17:45:06;4.80;99.90
5930;DHT22;2990;48.746;9.236;2023-04-03T17:47:32;4.80;99.90
5930;DHT22;2990;48.746;9.236;2023-04-03T17:49:58;4.70;99.90
5930;DHT22;2990;48.746;9.236;2023-04-03T17:52:23;4.70;99.90
5930;DHT22;2990;48.746;9.236;2023-04-03T17:54:52;4.70;99.90
5930;DHT22;2990;48.746;9.236;2023-04-03T17:57:18;4.70;99.90
5930;DHT22;2990;48.746;9.236;2023-04-03T17:59:45;4.60;99.90
5930;DHT22;2990;48.746;9.236;2023-04-03T18:02:10;4.60;99.90
5930;DHT22;2990;48.746;9.236;2023-04-03T18:04:36;4.50;99.90
5930;DHT22;2990;48.746;9.236;2023-04-03T18:07:02;4.50;99.90
5930;DHT22;2990;48.746;9.236;2023-04-03T18:09:33;4.60;99.90
5930;DHT22;2990;48.746;9.236;2023-04-03T18:12:04;4.40;99.90
5930;DHT22;2990;48.746;9.236;2023-04-03T18:14:32;4.30;99.90
5930;DHT22;2990;48.746;9.236;2023-04-03T18:16:58;4.30;99.90
5930;DHT22;2990;48.746;9.236;2023-04-03T18:19:24;4.30;99.90
5930;DHT22;2990;48.746;9.236;2023-04-03T18:21:51;4.30;99.90
5930;DHT22;2990;48.746;9.236;2023-04-03T18:24:20;4.20;99.90
5930;DHT22;2990;48.746;9.236;2023-04-03T18:26:50;4.20;99.90
5930;DHT22;2990;48.746;9.236;2023-04-03T18:29:18;4.30;99.90
5930;DHT22;2990;48.746;9.236;2023-04-03T18:31:47;4.30;99.90
5930;DHT22;2990;48.746;9.236;2023-04-03T18:34:13;4.30;99.90
5930;DHT22;2990;48.746;9.236;2023-04-03T18:36:42;4.30;99.90
5930;DHT22;2990;48.746;9.236;2023-04-03T18:39:08;4.30;99.90
5930;DHT22;2990;48.746;9.236;2023-04-03T18:41:34;4.30;99.90
5930;DHT22;2990;48.746;9.236;2023-04-03T18:44:03;4.40;99.90
5930;DHT22;2990;48.746;9.236;2023-04-03T18:46:31;4.10;99.90
5930;DHT22;2990;48.746;9.236;2023-04-03T18:48:56;4.10;99.90
5930;DHT22;2990;48.746;9.236;2023-04-03T18:51:23;4.00;99.90
5930;DHT22;2990;48.746;9.236;2023-04-03T18:53:50;3.90;99.90